Time;durP1;ratioP1;P1;durP2;ratioP2;P2;SDS_P1;SDS_P2;PMS_P1;PMS_P2;Temp;Humidity;BMP_temperature;BMP_pressure;BME280_temperature;BME280_humidity;BME280_pressure;Samples;Min_cycle;Max_cycle;Signal;HPM_P1;HPM_P2
2022/05/06 00:02:25;;;;;;;46.40;29.60;;;9.30;99.90;;;;;;5047769;28;20049;-34
2022/05/06 00:04:51;;;;;;;49.03;31.17;;;9.30;99.90;;;;;;5050203;28;20056;-35
2022/05/06 00:07:17;;;;;;;47.60;30.57;;;9.30;99.90;;;;;;5041979;28;20109;-34
2022/05/06 00:09:44;;;;;;;47.47;30.40;;;9.30;99.90;;;;;;5067136;28;20052;-34
2022/05/06 00:12:12;;;;;;;46.90;31.37;;;9.30;99.90;;;;;;5059331;28;20052;-35
2022/05/06 00:14:38;;;;;;;43.73;28.73;;;9.30;99.90;;;;;;5052145;28;20071;-34
2022/05/06 00:17:06;;;;;;;46.33;29.60;;;9.20;99.90;;;;;;5032357;28;20060;-35
2022/05/06 00:19:32;;;;;;;45.93;29.60;;;9.10;99.90;;;;;;5048415;28;20222;-34
2022/05/06 00:21:58;;;;;;;50.87;31.53;;;9.20;99.90;;;;;;5048263;28;20043;-35
2022/05/06 00:24:24;;;;;;;45.40;29.60;;;9.20;99.90;;;;;;5047401;28;20048;-35
2022/05/06 00:26:49;;;;;;;44.03;28.93;;;9.10;99.90;;;;;;5032959;28;20464;-35
2022/05/06 00:29:16;;;;;;;39.67;26.70;;;9.10;99.90;;;;;;5047572;28;20040;-34
2022/05/06 00:31:41;;;;;;;34.57;22.23;;;9.00;99.90;;;;;;5047658;28;20052;-34
2022/05/06 00:34:09;;;;;;;30.23;20.53;;;9.00;99.90;;;;;;5047330;28;20055;-34
2022/05/06 00:36:34;;;;;;;31.93;20.77;;;8.90;99.90;;;;;;5032421;28;20049;-34
2022/05/06 00:39:00;;;;;;;37.63;22.23;;;8.90;99.90;;;;;;5046716;28;20103;-34
2022/05/06 00:41:26;;;;;;;35.83;22.50;;;8.80;99.90;;;;;;5047791;28;20041;-35
2022/05/06 00:43:51;;;;;;;40.33;25.47;;;8.80;99.90;;;;;;5046847;28;20037;-34
2022/05/06 00:46:17;;;;;;;39.10;26.27;;;8.80;99.90;;;;;;5036612;28;20107;-35
2022/05/06 00:48:47;;;;;;;42.70;26.63;;;8.80;99.90;;;;;;5042436;28;20099;-34
2022/05/06 00:51:14;;;;;;;42.63;27.57;;;8.80;99.90;;;;;;5046424;28;20101;-35
2022/05/06 00:53:43;;;;;;;46.83;29.03;;;8.80;99.90;;;;;;5045676;28;20047;-34
2022/05/06 00:56:10;;;;;;;42.50;28.37;;;8.70;99.90;;;;;;5041104;28;20053;-36
2022/05/06 00:58:36;;;;;;;42.17;28.60;;;9.10;99.90;;;;;;5038859;28;20564;-34
2022/05/06 01:01:03;;;;;;;46.50;29.93;;;8.70;99.90;;;;;;5031755;28;20049;-34
2022/05/06 01:03:30;;;;;;;47.63;29.27;;;8.80;99.90;;;;;;5047046;28;20053;-34
2022/05/06 01:05:56;;;;;;;41.63;24.73;;;8.80;99.90;;;;;;5051257;28;20048;-34
2022/05/06 01:08:21;;;;;;;34.67;23.17;;;8.80;99.90;;;;;;5049004;28;20506;-34
2022/05/06 01:10:48;;;;;;;44.13;24.03;;;8.70;99.90;;;;;;5067634;28;20492;-34
2022/05/06 01:13:14;;;;;;;32.70;21.30;;;8.60;99.90;;;;;;5066569;28;20414;-34
2022/05/06 01:15:40;;;;;;;22.27;14.80;;;8.60;99.90;;;;;;5067928;28;20391;-34
2022/05/06 01:18:12;;;;;;;17.43;11.13;;;8.50;99.90;;;;;;5054200;28;20051;-34
2022/05/06 01:20:44;;;;;;;19.10;10.63;;;8.40;99.90;;;;;;5072160;28;20044;-34
2022/05/06 01:23:11;;;;;;;14.43;10.27;;;8.30;99.90;;;;;;5069342;28;20050;-34
2022/05/06 01:25:38;;;;;;;13.67;8.83;;;8.30;99.90;;;;;;5067113;28;20404;-34
2022/05/06 01:28:05;;;;;;;12.63;8.07;;;8.10;99.90;;;;;;5035407;28;20045;-34
2022/05/06 01:30:48;;;;;;;12.17;8.77;;;8.10;99.90;;;;;;5051339;28;20044;-35
2022/05/06 01:33:16;;;;;;;16.20;10.27;;;8.10;99.90;;;;;;5050450;28;20037;-34
2022/05/06 01:35:53;;;;;;;14.97;9.70;;;8.00;99.90;;;;;;5051512;28;20469;-34
2022/05/06 01:38:34;;;;;;;14.60;9.80;;;8.00;99.90;;;;;;5035885;28;20045;-34
2022/05/06 01:41:02;;;;;;;17.63;10.52;;;7.90;99.90;;;;;;5050171;28;20535;-34
2022/05/06 01:43:37;;;;;;;34.20;20.77;;;7.90;99.90;;;;;;5050733;28;20475;-34
2022/05/06 01:46:04;;;;;;;22.33;16.00;;;7.90;99.90;;;;;;5051313;28;20048;-34
2022/05/06 01:48:31;;;;;;;22.67;13.07;;;8.00;99.90;;;;;;5034821;28;20052;-34
2022/05/06 01:50:58;;;;;;;17.37;11.47;;;7.90;99.90;;;;;;5051381;28;20493;-34
2022/05/06 01:53:24;;;;;;;13.77;9.93;;;8.00;99.90;;;;;;5050099;28;20104;-34
2022/05/06 01:55:50;;;;;;;14.30;10.07;;;8.00;99.90;;;;;;5051346;28;20056;-34
2022/05/06 01:58:16;;;;;;;12.40;8.77;;;7.90;99.90;;;;;;5033122;28;20037;-34
2022/05/06 02:00:42;;;;;;;9.57;7.50;;;7.80;99.90;;;;;;5058533;28;20168;-34
2022/05/06 02:05:16;;;;;;;9.13;7.40;;;7.70;99.90;;;;;;5069696;28;20389;-34
2022/05/06 02:05:54;;;;;;;10.53;7.77;;;7.60;99.90;;;;;;5054098;28;20052;-34
2022/05/06 02:08:20;;;;;;;8.63;7.20;;;7.50;99.90;;;;;;5051939;28;20044;-34
2022/05/06 02:10:45;;;;;;;8.07;7.20;;;7.50;99.90;;;;;;5071465;28;20391;-34
2022/05/06 02:13:11;;;;;;;7.93;6.73;;;7.40;99.90;;;;;;5069570;28;20159;-34
2022/05/06 02:15:38;;;;;;;7.47;6.37;;;7.30;99.90;;;;;;5069349;28;20082;-34
2022/05/06 02:18:04;;;;;;;8.10;6.50;;;7.20;99.90;;;;;;5054026;28;20563;-34
2022/05/06 02:20:30;;;;;;;7.87;6.80;;;7.20;99.90;;;;;;5059048;28;20064;-34
2022/05/06 02:22:55;;;;;;;11.20;8.33;;;7.10;99.90;;;;;;5049844;28;20051;-34
2022/05/06 02:25:22;;;;;;;11.30;8.83;;;7.10;99.90;;;;;;5050279;28;20053;-34
2022/05/06 02:27:48;;;;;;;10.03;8.50;;;7.10;99.90;;;;;;5033717;28;20049;-34
2022/05/06 02:33:13;;;;;;;25.77;15.83;;;7.10;99.90;;;;;;5049429;28;20052;-34
2022/05/06 02:35:40;;;;;;;41.20;21.38;;;7.20;99.90;;;;;;5050329;28;20245;-34
2022/05/06 02:38:08;;;;;;;37.03;20.10;;;7.20;99.90;;;;;;5035098;28;20076;-34
2022/05/06 02:40:35;;;;;;;45.00;21.87;;;7.30;99.90;;;;;;5068479;28;20434;-34
2022/05/06 02:43:02;;;;;;;48.00;26.13;;;7.30;99.90;;;;;;5057567;28;20102;-34
2022/05/06 02:45:28;;;;;;;47.90;24.20;;;7.40;99.90;;;;;;5055244;28;20036;-34
2022/05/06 02:47:54;;;;;;;53.10;26.73;;;7.40;99.90;;;;;;5053248;28;20098;-34
2022/05/06 02:50:20;;;;;;;72.63;34.47;;;7.40;99.90;;;;;;5051751;28;20456;-34
2022/05/06 02:52:45;;;;;;;163.37;39.87;;;7.50;99.90;;;;;;5048690;28;20408;-34
2022/05/06 02:55:11;;;;;;;359.10;52.00;;;7.50;99.90;;;;;;5050431;28;20049;-35
2022/05/06 02:57:37;;;;;;;307.50;53.80;;;7.60;99.90;;;;;;5042719;28;20080;-34
2022/05/06 03:00:04;;;;;;;171.83;54.00;;;7.60;99.90;;;;;;5064750;28;20041;-34
2022/05/06 03:02:30;;;;;;;218.80;54.60;;;7.70;99.90;;;;;;5049178;28;20056;-34
2022/05/06 03:04:56;;;;;;;239.37;52.93;;;7.70;99.90;;;;;;5052537;28;20127;-34
2022/05/06 03:07:22;;;;;;;243.70;52.10;;;7.80;99.90;;;;;;5044080;28;20049;-34
2022/05/06 03:09:48;;;;;;;193.30;48.80;;;7.80;99.90;;;;;;5069179;28;20098;-34
2022/05/06 03:12:16;;;;;;;145.00;45.53;;;7.70;99.90;;;;;;5069155;28;20052;-34
2022/05/06 03:14:42;;;;;;;201.20;49.63;;;7.80;99.90;;;;;;5069231;28;20603;-34
2022/05/06 03:17:08;;;;;;;182.07;46.17;;;7.90;99.90;;;;;;5036638;28;20128;-34
2022/05/06 03:19:34;;;;;;;197.00;45.67;;;7.90;99.90;;;;;;5049098;28;20442;-34
2022/05/06 03:22:00;;;;;;;340.00;50.83;;;8.00;99.90;;;;;;5049542;28;20049;-34
2022/05/06 03:24:25;;;;;;;227.73;49.63;;;8.00;99.90;;;;;;5065278;28;20499;-34
2022/05/06 03:26:51;;;;;;;159.27;50.00;;;8.00;99.90;;;;;;5040963;28;20045;-34
2022/05/06 03:29:17;;;;;;;314.37;52.77;;;8.10;99.90;;;;;;5048383;28;20045;-34
2022/05/06 03:31:42;;;;;;;272.47;50.70;;;8.10;99.90;;;;;;5047701;28;20500;-34
2022/05/06 03:34:08;;;;;;;356.10;55.47;;;8.10;99.90;;;;;;5046470;28;20052;-34
2022/05/06 03:36:34;;;;;;;262.23;50.37;;;8.10;99.90;;;;;;5035194;28;20057;-35
2022/05/06 03:39:01;;;;;;;300.73;49.83;;;8.10;99.90;;;;;;5046487;28;20114;-34
2022/05/06 03:41:27;;;;;;;305.70;48.93;;;8.10;99.90;;;;;;5048820;28;20087;-34
2022/05/06 03:43:53;;;;;;;296.57;49.60;;;8.20;99.90;;;;;;5060923;28;20072;-34
2022/05/06 03:46:19;;;;;;;192.93;50.53;;;8.30;99.90;;;;;;5038019;28;20041;-35
2022/05/06 03:48:45;;;;;;;258.20;49.87;;;8.20;99.90;;;;;;5059044;28;20101;-34
2022/05/06 03:51:22;;;;;;;167.90;47.30;;;8.20;99.90;;;;;;5049290;28;20083;-34
2022/05/06 03:53:53;;;;;;;269.77;48.37;;;8.20;99.90;;;;;;5065273;28;20150;-34
2022/05/06 03:56:22;;;;;;;225.55;48.10;;;8.20;99.90;;;;;;5058074;28;20411;-35
2022/05/06 03:58:48;;;;;;;167.77;48.33;;;8.40;99.90;;;;;;5063924;28;20041;-35
2022/05/06 04:01:19;;;;;;;282.80;48.07;;;8.40;99.90;;;;;;5053867;28;20060;-36
2022/05/06 04:03:46;;;;;;;429.80;61.63;;;8.30;99.90;;;;;;5047330;28;20049;-36
2022/05/06 04:06:14;;;;;;;328.63;54.43;;;8.40;99.90;;;;;;5043591;28;20126;-36
2022/05/06 04:08:41;;;;;;;218.97;49.83;;;8.40;99.90;;;;;;5060462;28;20072;-36
2022/05/06 04:11:08;;;;;;;376.73;59.33;;;8.40;99.90;;;;;;5067339;28;20055;-36
2022/05/06 04:13:35;;;;;;;190.30;52.33;;;8.40;99.90;;;;;;5067867;28;20032;-36
2022/05/06 04:16:01;;;;;;;254.87;54.63;;;8.50;99.90;;;;;;5060286;28;20491;-36
2022/05/06 04:18:28;;;;;;;295.13;55.37;;;8.50;99.90;;;;;;5030158;28;20359;-35
2022/05/06 04:23:38;;;;;;;223.67;49.87;;;8.60;99.90;;;;;;5046771;28;20060;-36
2022/05/06 04:26:08;;;;;;;291.27;52.10;;;8.50;99.90;;;;;;5047228;28;20041;-36
2022/05/06 04:28:35;;;;;;;259.57;51.07;;;8.50;99.90;;;;;;5038266;28;20044;-36
2022/05/06 04:31:01;;;;;;;160.17;45.33;;;8.60;99.90;;;;;;5048021;28;20037;-36
2022/05/06 04:33:28;;;;;;;179.37;44.20;;;8.60;99.90;;;;;;5047464;28;20053;-36
2022/05/06 04:35:55;;;;;;;130.67;44.63;;;8.60;99.90;;;;;;5050492;28;20412;-36
2022/05/06 04:38:22;;;;;;;159.17;48.33;;;8.60;99.90;;;;;;5032762;28;20076;-34
2022/05/06 04:40:48;;;;;;;164.87;45.70;;;8.70;99.90;;;;;;5046381;28;20129;-34
2022/05/06 04:43:16;;;;;;;173.63;44.90;;;8.60;99.90;;;;;;5047407;28;20124;-34
2022/05/06 04:45:45;;;;;;;168.13;44.47;;;8.60;99.90;;;;;;5047204;28;20522;-34
2022/05/06 04:48:12;;;;;;;200.63;48.80;;;8.70;99.90;;;;;;5031044;28;20205;-34
2022/05/06 04:50:39;;;;;;;120.47;44.23;;;8.70;99.90;;;;;;5049305;28;20447;-34
2022/05/06 04:53:07;;;;;;;230.43;49.67;;;8.70;99.90;;;;;;5042130;28;20554;-33
2022/05/06 04:55:41;;;;;;;211.20;50.27;;;8.70;99.90;;;;;;5046280;28;20041;-34
2022/05/06 04:58:08;;;;;;;186.27;49.03;;;8.70;99.90;;;;;;5031781;28;20072;-34
2022/05/06 05:00:34;;;;;;;150.33;43.63;;;8.80;99.90;;;;;;5043895;28;20041;-34
2022/05/06 05:03:00;;;;;;;182.23;46.77;;;8.80;99.90;;;;;;5053008;28;20040;-34
2022/05/06 05:05:26;;;;;;;102.87;44.97;;;8.90;99.90;;;;;;5048557;28;20044;-34
2022/05/06 05:07:55;;;;;;;184.10;50.73;;;8.90;99.90;;;;;;5031573;28;20416;-34
2022/05/06 05:10:22;;;;;;;222.43;53.63;;;8.90;99.90;;;;;;5047842;28;20063;-34
2022/05/06 05:12:48;;;;;;;160.87;49.67;;;9.00;99.90;;;;;;5046226;28;20048;-34
2022/05/06 05:15:15;;;;;;;197.27;52.03;;;9.00;99.90;;;;;;5044700;28;20045;-34
2022/05/06 05:17:41;;;;;;;202.97;55.87;;;9.00;99.90;;;;;;5029263;28;20282;-34
2022/05/06 05:20:08;;;;;;;272.37;57.17;;;9.00;99.90;;;;;;5045759;28;20462;-34
2022/05/06 05:22:35;;;;;;;137.73;52.50;;;9.10;99.90;;;;;;5046855;28;20041;-34
2022/05/06 05:25:03;;;;;;;268.37;61.30;;;9.20;99.90;;;;;;5047744;28;20048;-34
2022/05/06 05:27:30;;;;;;;180.37;59.97;;;9.20;99.90;;;;;;5030977;28;20045;-34
2022/05/06 05:29:57;;;;;;;165.43;56.13;;;9.20;99.90;;;;;;5046021;28;20044;-34
2022/05/06 05:32:23;;;;;;;178.83;57.60;;;9.30;99.90;;;;;;5045912;28;20048;-34
2022/05/06 05:34:49;;;;;;;110.63;47.73;;;9.30;99.90;;;;;;5047255;28;20128;-34
2022/05/06 05:37:15;;;;;;;204.47;58.17;;;9.30;99.90;;;;;;5031233;28;20445;-34
2022/05/06 05:39:41;;;;;;;218.70;58.33;;;9.40;99.90;;;;;;5047021;28;20056;-34
2022/05/06 05:42:07;;;;;;;138.07;50.13;;;9.40;99.90;;;;;;5046461;28;20037;-35
2022/05/06 05:50:06;;;;;;;119.40;46.00;;;9.50;99.90;;;;;;5052021;28;20101;-34
2022/05/06 05:52:33;;;;;;;135.73;46.70;;;9.60;99.90;;;;;;5046380;28;20118;-34
2022/05/06 05:54:59;;;;;;;101.70;41.17;;;9.60;99.90;;;;;;5047241;28;20052;-34
2022/05/06 05:57:24;;;;;;;155.53;45.10;;;9.60;99.90;;;;;;5037486;28;20325;-36
2022/05/06 05:59:50;;;;;;;144.37;45.60;;;9.60;99.90;;;;;;5063819;28;20033;-35
2022/05/06 06:02:19;;;;;;;113.20;45.00;;;9.60;99.90;;;;;;5044921;28;20489;-35
2022/05/06 06:04:45;;;;;;;109.73;42.93;;;9.70;99.90;;;;;;5051086;28;20057;-35
2022/05/06 06:07:11;;;;;;;114.43;43.93;;;9.70;99.90;;;;;;5044223;28;20055;-35
2022/05/06 06:09:37;;;;;;;133.83;46.00;;;9.70;99.90;;;;;;5070634;28;20064;-35
2022/05/06 06:12:04;;;;;;;121.00;46.23;;;9.80;99.90;;;;;;5060172;28;20041;-41
2022/05/06 06:14:29;;;;;;;107.77;42.97;;;9.80;99.90;;;;;;5050652;28;20056;-35
2022/05/06 06:16:56;;;;;;;115.93;44.00;;;9.90;99.90;;;;;;5035187;28;20053;-35
2022/05/06 06:19:22;;;;;;;115.93;40.63;;;9.90;99.90;;;;;;5049728;28;20053;-35
2022/05/06 06:21:47;;;;;;;97.47;41.07;;;9.90;99.90;;;;;;5050610;28;20178;-35
2022/05/06 06:24:14;;;;;;;108.63;42.73;;;10.10;99.90;;;;;;5052494;28;20052;-35
2022/05/06 06:26:39;;;;;;;93.63;40.60;;;10.00;99.90;;;;;;5044581;28;20080;-35
2022/05/06 06:29:05;;;;;;;117.80;44.73;;;10.00;99.90;;;;;;5048161;28;20067;-35
2022/05/06 06:31:32;;;;;;;92.77;40.70;;;10.00;99.90;;;;;;5049321;28;20048;-35
2022/05/06 06:33:58;;;;;;;97.23;41.80;;;10.10;99.90;;;;;;5049241;28;20486;-35
2022/05/06 06:36:24;;;;;;;83.70;41.70;;;10.10;99.90;;;;;;5036969;28;20065;-35
2022/05/06 06:38:50;;;;;;;107.80;46.17;;;10.20;99.90;;;;;;5047615;28;20159;-35
2022/05/06 06:41:16;;;;;;;71.37;37.40;;;10.20;99.90;;;;;;5049920;28;20407;-35
2022/05/06 06:43:42;;;;;;;80.43;40.53;;;10.30;99.90;;;;;;5049611;28;20052;-35
2022/05/06 06:46:08;;;;;;;79.43;35.27;;;10.40;99.90;;;;;;5050815;28;20068;-35
2022/05/06 06:48:34;;;;;;;60.10;33.33;;;10.40;99.90;;;;;;5048785;28;20202;-35
2022/05/06 06:51:00;;;;;;;56.42;30.67;;;10.50;99.90;;;;;;5056057;28;20060;-35
2022/05/06 06:53:26;;;;;;;48.58;29.80;;;10.50;99.90;;;;;;5052003;28;20052;-35
2022/05/06 06:55:51;;;;;;;42.65;27.10;;;10.60;99.90;;;;;;5053239;28;20045;-35
2022/05/06 06:58:17;;;;;;;36.92;24.65;;;10.60;99.90;;;;;;5038243;28;20087;-35
2022/05/06 07:00:43;;;;;;;39.50;25.52;;;10.60;99.90;;;;;;5059223;28;20136;-36
2022/05/06 07:03:12;;;;;;;39.00;23.80;;;10.70;99.90;;;;;;5064880;28;20048;-36
2022/05/06 07:11:52;;;;;;;36.05;20.83;;;10.70;99.90;;;;;;5050102;28;20407;-35
2022/05/06 07:11:53;;;;;;;27.48;19.75;;;10.60;99.90;;;;;;5049929;28;20060;-36
2022/05/06 07:13:55;;;;;;;31.00;18.42;;;10.70;99.90;;;;;;5044715;28;20045;-36
2022/05/06 07:16:22;;;;;;;30.73;18.98;;;10.80;99.90;;;;;;5041544;28;20467;-36
2022/05/06 07:18:47;;;;;;;26.40;17.10;;;10.80;99.90;;;;;;5051122;28;20041;-36
2022/05/06 07:21:13;;;;;;;24.67;16.85;;;10.80;99.90;;;;;;5059652;28;20095;-36
2022/05/06 07:23:39;;;;;;;23.02;16.10;;;10.90;99.90;;;;;;5066926;28;20043;-36
2022/05/06 07:26:05;;;;;;;23.95;15.65;;;10.90;99.90;;;;;;5062683;28;20432;-35
2022/05/06 07:28:30;;;;;;;18.60;13.68;;;11.00;99.90;;;;;;5034916;28;20162;-36
2022/05/06 07:30:56;;;;;;;17.73;12.55;;;11.00;99.90;;;;;;5047223;28;20072;-36
2022/05/06 07:33:21;;;;;;;15.57;11.70;;;11.10;99.90;;;;;;5055406;28;20048;-36
2022/05/06 07:35:47;;;;;;;14.07;10.57;;;11.10;99.90;;;;;;5057202;28;20060;-36
2022/05/06 07:38:13;;;;;;;12.35;9.88;;;11.20;99.90;;;;;;5045736;28;20064;-36
2022/05/06 07:40:38;;;;;;;14.68;10.23;;;11.20;99.90;;;;;;5069164;28;20055;-36
2022/05/06 07:43:04;;;;;;;11.07;9.05;;;11.30;99.90;;;;;;5068153;28;20037;-36
2022/05/06 07:45:30;;;;;;;13.57;9.77;;;11.20;99.90;;;;;;5049459;28;20516;-36
2022/05/06 07:47:55;;;;;;;11.85;9.35;;;11.30;99.90;;;;;;5030877;28;20098;-36
2022/05/06 07:50:21;;;;;;;10.80;8.77;;;11.40;99.90;;;;;;5051494;28;20048;-36
2022/05/06 07:52:49;;;;;;;11.63;9.52;;;11.40;99.90;;;;;;5061914;28;20091;-36
2022/05/06 07:55:17;;;;;;;14.18;10.80;;;11.50;99.90;;;;;;5048904;28;20526;-36
2022/05/06 07:57:42;;;;;;;13.40;9.48;;;11.50;99.90;;;;;;5036266;28;20051;-36
2022/05/06 08:00:09;;;;;;;9.82;8.13;;;11.60;99.90;;;;;;5062769;28;20036;-36
2022/05/06 08:05:22;;;;;;;10.65;8.70;;;11.70;99.90;;;;;;5048196;28;20127;-36
2022/05/06 08:07:47;;;;;;;10.70;9.25;;;11.80;99.90;;;;;;5030845;28;20118;-36
2022/05/06 08:10:14;;;;;;;11.10;9.10;;;12.00;99.90;;;;;;5054945;28;20495;-36
2022/05/06 08:12:39;;;;;;;10.40;8.27;;;12.00;99.90;;;;;;5067729;28;20041;-37
2022/05/06 08:15:05;;;;;;;10.85;8.30;;;12.10;99.90;;;;;;5068645;28;20102;-36
2022/05/06 08:17:31;;;;;;;10.52;8.60;;;12.20;99.90;;;;;;5038337;28;20049;-36
2022/05/06 08:19:57;;;;;;;10.73;8.73;;;12.30;99.90;;;;;;5047283;28;20068;-36
2022/05/06 08:22:22;;;;;;;9.88;8.77;;;12.30;99.90;;;;;;5047356;28;20056;-36
2022/05/06 08:24:48;;;;;;;10.73;9.20;;;12.40;99.90;;;;;;5047053;28;20053;-36
2022/05/06 08:27:14;;;;;;;9.90;8.40;;;12.50;99.90;;;;;;5032012;28;20041;-36
2022/05/06 08:29:41;;;;;;;9.88;8.52;;;12.60;99.90;;;;;;5047770;28;20205;-36
2022/05/06 08:32:07;;;;;;;9.68;8.20;;;12.60;99.90;;;;;;5047581;28;20051;-36
2022/05/06 08:34:32;;;;;;;9.50;7.95;;;12.70;99.90;;;;;;5047831;28;20391;-36
2022/05/06 08:36:58;;;;;;;10.60;8.80;;;12.80;99.90;;;;;;5032906;28;20061;-36
2022/05/06 08:39:24;;;;;;;9.38;8.07;;;12.90;99.90;;;;;;5047622;28;20045;-36
2022/05/06 08:41:51;;;;;;;10.25;9.13;;;13.00;99.90;;;;;;5046670;28;20099;-36
2022/05/06 08:52:40;;;;;;;12.00;8.40;;;13.40;99.90;;;;;;5047497;28;20170;-36
2022/05/06 08:55:06;;;;;;;9.15;7.80;;;13.50;99.90;;;;;;5047495;28;20045;-36
2022/05/06 08:57:33;;;;;;;9.40;7.80;;;13.60;99.90;;;;;;5040042;28;20041;-36
2022/05/06 08:59:59;;;;;;;10.15;8.52;;;13.70;99.90;;;;;;5062958;28;20128;-36
2022/05/06 09:02:24;;;;;;;11.05;7.80;;;13.80;99.90;;;;;;5047479;28;20136;-36
2022/05/06 09:04:50;;;;;;;9.88;7.75;;;13.80;99.90;;;;;;5048088;28;20056;-36
2022/05/06 09:07:25;;;;;;;10.13;8.60;;;13.90;99.90;;;;;;5035761;28;20048;-36
2022/05/06 09:10:12;;;;;;;9.35;8.10;;;13.90;99.90;;;;;;5047338;28;20041;-36
2022/05/06 09:12:46;;;;;;;10.35;7.38;;;14.00;99.90;;;;;;5047278;28;20045;-36
2022/05/06 09:18:19;;;;;;;9.18;7.93;;;14.10;99.90;;;;;;5007550;28;20455;-36
2022/05/06 09:20:46;;;;;;;9.68;8.23;;;14.20;99.90;;;;;;5047850;28;20037;-36
2022/05/06 09:23:25;;;;;;;8.60;7.70;;;14.30;99.90;;;;;;5046704;28;20059;-36
2022/05/06 09:25:55;;;;;;;9.43;8.05;;;14.40;99.90;;;;;;5047285;28;20561;-36
2022/05/06 09:28:25;;;;;;;8.63;7.63;;;14.40;99.90;;;;;;5030158;28;20041;-36
2022/05/06 09:31:01;;;;;;;10.38;8.23;;;14.50;99.90;;;;;;5047670;28;20404;-36
2022/05/06 09:33:31;;;;;;;8.85;7.18;;;14.60;99.90;;;;;;5044974;28;20136;-36
2022/05/06 09:35:57;;;;;;;8.95;6.97;;;14.70;99.90;;;;;;5047390;28;20075;-36
2022/05/06 09:38:29;;;;;;;7.45;6.72;;;14.70;99.90;;;;;;5033896;28;20056;-36
2022/05/06 09:40:55;;;;;;;7.60;6.80;;;14.80;99.90;;;;;;5051215;28;20120;-37
2022/05/06 09:43:21;;;;;;;8.30;6.15;;;14.80;99.90;;;;;;5049407;28;20439;-36
2022/05/06 09:45:47;;;;;;;7.65;6.53;;;15.00;99.90;;;;;;5073304;28;20056;-37
2022/05/06 09:48:14;;;;;;;9.52;7.25;;;15.00;99.90;;;;;;5013372;28;20084;-36
2022/05/06 09:50:41;;;;;;;11.00;6.72;;;15.10;99.90;;;;;;5052944;28;20421;-36
2022/05/06 09:53:09;;;;;;;10.23;7.38;;;15.20;99.90;;;;;;5050803;28;20057;-37
2022/05/06 09:55:39;;;;;;;7.13;6.43;;;15.30;99.90;;;;;;5051052;28;20057;-36
2022/05/06 09:58:06;;;;;;;7.70;6.88;;;15.40;99.90;;;;;;5034809;28;20116;-37
2022/05/06 10:00:32;;;;;;;7.35;6.50;;;15.50;99.90;;;;;;5039807;28;20416;-37
2022/05/06 10:03:00;;;;;;;7.53;6.72;;;15.60;99.90;;;;;;5070274;28;20045;-37
2022/05/06 10:05:29;;;;;;;8.68;6.30;;;15.70;99.90;;;;;;5051935;28;20448;-36
2022/05/06 10:08:12;;;;;;;8.38;6.50;;;15.70;99.90;;;;;;5034902;28;20045;-37
2022/05/06 10:10:41;;;;;;;6.38;4.57;;;15.90;99.90;;;;;;5050910;28;20049;-37
2022/05/06 10:13:14;;;;;;;4.40;3.88;;;15.90;99.90;;;;;;5067491;28;20048;-37
2022/05/06 10:15:40;;;;;;;5.03;4.00;;;16.00;99.90;;;;;;5070937;28;20123;-37
2022/05/06 10:18:10;;;;;;;4.80;4.30;;;16.10;99.90;;;;;;5054689;28;20852;-37
2022/05/06 10:20:35;;;;;;;5.57;5.03;;;16.10;99.90;;;;;;5070133;28;20052;-37
2022/05/06 10:23:02;;;;;;;4.88;4.38;;;16.20;99.90;;;;;;5069759;28;20132;-37
2022/05/06 10:25:40;;;;;;;5.97;4.90;;;16.30;99.90;;;;;;5066874;28;20084;-37
2022/05/06 10:34:16;;;;;;;5.45;4.57;;;16.50;99.90;;;;;;5067236;28;20047;-37
2022/05/06 10:36:50;;;;;;;8.20;3.90;;;16.60;99.90;;;;;;5056217;28;20520;-37
2022/05/06 10:39:27;;;;;;;3.78;3.40;;;16.70;99.90;;;;;;5070561;28;20047;-37
2022/05/06 10:42:10;;;;;;;4.18;3.28;;;16.70;99.90;;;;;;5067763;28;20052;-37
2022/05/06 10:44:47;;;;;;;4.30;3.50;;;16.80;99.90;;;;;;5049170;28;20041;-37
2022/05/06 10:47:12;;;;;;;5.13;3.33;;;16.90;99.90;;;;;;5034213;28;20057;-37
2022/05/06 10:49:38;;;;;;;3.70;3.30;;;17.00;99.90;;;;;;5046911;28;20393;-37
2022/05/06 10:52:16;;;;;;;4.22;3.25;;;17.00;99.90;;;;;;5050114;28;20071;-37
2022/05/06 10:54:42;;;;;;;3.55;3.13;;;17.10;99.90;;;;;;5048851;28;20130;-37
2022/05/06 10:57:09;;;;;;;3.53;2.85;;;17.20;99.90;;;;;;5039049;28;20053;-37
2022/05/06 11:00:00;;;;;;;3.80;3.00;;;17.20;99.90;;;;;;5068620;28;20044;-37
2022/05/06 11:02:31;;;;;;;4.40;3.00;;;17.30;99.90;;;;;;5038498;28;20044;-37
2022/05/06 11:05:00;;;;;;;3.95;3.00;;;17.30;99.90;;;;;;5052503;28;20110;-37
2022/05/06 11:07:27;;;;;;;4.32;3.20;;;17.40;99.90;;;;;;5044090;28;20668;-37
2022/05/06 11:09:53;;;;;;;5.65;3.72;;;17.40;99.90;;;;;;5069252;28;20534;-37
2022/05/06 11:12:29;;;;;;;3.95;3.60;;;17.40;99.90;;;;;;5069103;28;20072;-37
2022/05/06 11:14:55;;;;;;;4.57;2.50;;;17.60;99.90;;;;;;5069552;28;20522;-37
2022/05/06 11:17:24;;;;;;;2.42;1.92;;;17.50;99.90;;;;;;5052488;28;20480;-37
2022/05/06 11:19:51;;;;;;;5.07;2.00;;;17.60;99.90;;;;;;5068831;28;20040;-37
2022/05/06 11:22:17;;;;;;;3.80;2.58;;;17.60;99.90;;;;;;5048764;28;20051;-37
2022/05/06 11:24:43;;;;;;;4.35;2.75;;;17.70;99.90;;;;;;5049708;28;20044;-37
2022/05/06 11:27:17;;;;;;;5.10;3.10;;;17.80;99.90;;;;;;5032882;28;20485;-38
2022/05/06 11:29:58;;;;;;;5.28;3.60;;;17.90;99.90;;;;;;5049589;28;20049;-37
2022/05/06 11:32:26;;;;;;;4.65;3.00;;;18.00;99.90;;;;;;5048620;28;20071;-37
2022/05/06 11:35:02;;;;;;;4.82;2.95;;;18.10;99.90;;;;;;5049632;28;20037;-37
2022/05/06 11:37:30;;;;;;;4.40;2.60;;;18.20;99.90;;;;;;5033907;28;20479;-39
2022/05/06 11:42:41;;;;;;;3.97;2.10;;;18.30;99.90;;;;;;5047001;28;20573;-38
2022/05/06 11:47:52;;;;;;;4.22;2.55;;;18.50;99.90;;;;;;5032973;28;20048;-37
2022/05/06 11:50:18;;;;;;;3.85;3.00;;;18.60;99.90;;;;;;5048758;28;20056;-37
2022/05/06 11:52:46;;;;;;;3.38;2.60;;;18.70;99.90;;;;;;5048284;28;20052;-37
2022/05/06 11:55:14;;;;;;;3.63;2.60;;;18.80;99.90;;;;;;5049219;28;20133;-37
2022/05/06 11:57:41;;;;;;;5.28;2.72;;;18.90;99.90;;;;;;5032778;28;20052;-38
2022/05/06 12:00:08;;;;;;;4.13;2.90;;;18.90;99.90;;;;;;5059207;28;20076;-37
2022/05/06 12:02:34;;;;;;;6.18;2.80;;;19.00;99.90;;;;;;5047800;28;20135;-38
2022/05/06 12:05:00;;;;;;;4.55;3.05;;;19.00;99.90;;;;;;5048495;28;20457;-37
2022/05/06 12:07:45;;;;;;;3.75;3.10;;;19.10;99.90;;;;;;5032697;28;20033;-39
2022/05/06 12:10:24;;;;;;;4.85;3.60;;;19.10;99.90;;;;;;5048835;28;20049;-37
2022/05/06 12:13:01;;;;;;;5.75;3.45;;;19.10;99.90;;;;;;5047537;28;20119;-37
2022/05/06 12:15:33;;;;;;;4.40;3.97;;;19.20;99.90;;;;;;5048828;28;20136;-38
2022/05/06 12:18:17;;;;;;;5.13;4.13;;;19.20;99.90;;;;;;5030828;28;20083;-38
2022/05/06 12:20:43;;;;;;;5.55;3.85;;;19.30;99.90;;;;;;5046985;28;20131;-38
2022/05/06 12:23:11;;;;;;;4.00;3.60;;;19.30;99.90;;;;;;5047708;28;20395;-37
2022/05/06 12:25:41;;;;;;;5.45;4.15;;;19.30;99.90;;;;;;5048402;28;20427;-38
2022/05/06 12:28:18;;;;;;;5.65;3.95;;;19.30;99.90;;;;;;5032248;28;20393;-38
2022/05/06 12:30:45;;;;;;;4.72;4.22;;;19.40;99.90;;;;;;5048354;28;20041;-38
2022/05/06 12:33:13;;;;;;;5.50;4.47;;;19.50;99.90;;;;;;5045750;28;20049;-38
2022/05/06 12:36:00;;;;;;;6.55;4.40;;;19.50;99.90;;;;;;5047886;28;20484;-38
2022/05/06 12:38:44;;;;;;;5.93;4.82;;;19.60;99.90;;;;;;5045980;28;20056;-38
2022/05/06 12:41:19;;;;;;;4.57;4.03;;;19.60;99.90;;;;;;5068098;28;20049;-38
2022/05/06 12:43:46;;;;;;;7.07;4.72;;;19.70;99.90;;;;;;5063127;28;20392;-38
2022/05/06 12:46:30;;;;;;;6.65;4.40;;;19.80;99.90;;;;;;5039866;28;20447;-39
2022/05/06 12:51:43;;;;;;;4.32;3.55;;;20.00;99.90;;;;;;5048088;28;20068;-38
2022/05/06 12:54:10;;;;;;;6.50;4.38;;;20.10;99.90;;;;;;5047228;28;20037;-38
2022/05/06 12:56:37;;;;;;;7.57;3.58;;;20.10;99.90;;;;;;5034238;28;20049;-38
2022/05/06 12:59:03;;;;;;;5.78;3.75;;;20.10;99.90;;;;;;5052722;28;20048;-38
2022/05/06 13:01:29;;;;;;;7.32;4.28;;;20.20;99.90;;;;;;5050290;28;20530;-38
2022/05/06 13:03:54;;;;;;;5.35;4.07;;;20.30;99.90;;;;;;5045901;28;20036;-38
2022/05/06 13:06:20;;;;;;;7.45;4.38;;;20.30;99.90;;;;;;5041343;28;20049;-38
2022/05/06 13:08:46;;;;;;;5.07;4.60;;;20.40;99.90;;;;;;5062478;28;20228;-38
2022/05/06 13:11:11;;;;;;;7.18;4.60;;;20.30;99.90;;;;;;5067931;28;20075;-38
2022/05/06 13:13:37;;;;;;;5.70;4.07;;;20.30;99.90;;;;;;5065466;28;20060;-38
2022/05/06 13:16:03;;;;;;;8.07;4.20;;;20.40;99.90;;;;;;5058761;28;20507;-38
2022/05/06 13:18:30;;;;;;;5.95;4.30;;;20.50;99.90;;;;;;5031465;28;20095;-38
2022/05/06 13:20:56;;;;;;;7.07;4.05;;;20.60;99.90;;;;;;5047446;28;20404;-38
2022/05/06 13:23:22;;;;;;;8.43;4.10;;;20.70;99.90;;;;;;5045362;28;20049;-38
2022/05/06 13:25:48;;;;;;;4.95;3.78;;;20.80;99.90;;;;;;5047288;28;20060;-38